West Pennsboro, Pennsylvania
Current Conditions -  °F | °C
As of 3:56 PM on Wednesday 17 Dec 2014 (Local Time) from KCXY Reporting Station
Broken Clouds Broken Clouds  
Wind Chill:   Ceiling: 5000
Heat Index:   Visibility: 10mi
Dew Point: -3°   Wind: 14mph
Humidity: 51%   Direction: 270°W
Pressure: 29.97"   Gusts: 23mph
Location:  40.183°N, 77.4166°W
Report Text: KCXY 172056Z 27012G20KT 10SM BKN050 07/M03 A2997 RMK AO2 SLP152 T00671028 51011
Loading
Personal Weather Stations






























Interactive Weather Map New forecast layout! Learn more

10-Day Weather Forecast

Advertisements
Track Severe Weather on mobile